Time;durP1;ratioP1;P1;durP2;ratioP2;P2;SDS_P1;SDS_P2;PMS_P1;PMS_P2;Temp;Humidity;BMP_temperature;BMP_pressure;BME280_temperature;BME280_humidity;BME280_pressure;Samples;Min_cycle;Max_cycle;Signal;HPM_P1;HPM_P2
2022/08/30 00:02:53;;;;;;;2.33;2.20;;;24.10;39.10;;;;;;6202371;22;20197;-61
2022/08/30 00:05:19;;;;;;;3.03;2.83;;;24.10;39.20;;;;;;6175441;23;20411;-64
2022/08/30 00:07:45;;;;;;;2.00;1.90;;;24.10;39.20;;;;;;6199472;22;20196;-66
2022/08/30 00:10:11;;;;;;;2.40;2.30;;;24.10;39.20;;;;;;6173831;23;20285;-63
2022/08/30 00:12:38;;;;;;;1.90;1.80;;;24.10;39.20;;;;;;6202586;22;20523;-64
2022/08/30 00:15:05;;;;;;;2.10;2.00;;;24.10;39.10;;;;;;6204068;22;20546;-64
2022/08/30 00:17:32;;;;;;;2.13;2.03;;;24.10;39.20;;;;;;6202602;22;20420;-64
2022/08/30 00:19:58;;;;;;;1.87;1.77;;;24.10;39.20;;;;;;6197215;22;20435;-62
2022/08/30 00:22:24;;;;;;;2.40;2.20;;;24.10;39.20;;;;;;6205101;22;20732;-63
2022/08/30 00:24:49;;;;;;;2.43;2.33;;;24.10;39.10;;;;;;6198593;22;20641;-63
2022/08/30 00:27:15;;;;;;;2.40;2.30;;;24.10;39.20;;;;;;6200206;22;20280;-62
2022/08/30 00:29:41;;;;;;;2.13;2.03;;;24.10;39.20;;;;;;6199279;22;20197;-61
2022/08/30 00:32:07;;;;;;;2.33;2.23;;;24.10;39.20;;;;;;6200450;22;20202;-63
2022/08/30 00:34:33;;;;;;;2.23;2.13;;;24.10;39.20;;;;;;6199069;22;20190;-62
2022/08/30 00:36:59;;;;;;;2.70;2.50;;;24.10;39.20;;;;;;6195774;22;20257;-65
2022/08/30 00:39:25;;;;;;;2.70;2.50;;;24.10;39.30;;;;;;6192302;22;21022;-65
2022/08/30 00:41:51;;;;;;;2.97;2.77;;;24.10;39.20;;;;;;6169963;23;20454;-63
2022/08/30 00:44:16;;;;;;;2.47;2.30;;;24.10;39.30;;;;;;6189127;23;20193;-62
2022/08/30 00:46:42;;;;;;;2.27;2.07;;;24.10;39.30;;;;;;6197420;22;20197;-61
2022/08/30 00:49:11;;;;;;;2.70;2.50;;;24.10;39.30;;;;;;6200828;22;20205;-63
2022/08/30 00:51:38;;;;;;;3.70;2.33;;;24.10;39.30;;;;;;6201597;22;20248;-62
2022/08/30 00:54:05;;;;;;;2.67;2.40;;;24.10;39.30;;;;;;6192837;22;21094;-62
2022/08/30 00:56:32;;;;;;;2.33;2.13;;;24.10;39.30;;;;;;6200833;22;20464;-63
2022/08/30 00:59:00;;;;;;;2.10;1.90;;;24.10;39.30;;;;;;6200363;22;20407;-62
2022/08/30 01:01:27;;;;;;;2.97;2.77;;;24.10;40.10;;;;;;6204488;22;20526;-63
2022/08/30 01:03:53;;;;;;;2.33;2.23;;;24.10;39.30;;;;;;6202220;22;20473;-62
2022/08/30 01:06:19;;;;;;;2.13;2.03;;;24.10;39.30;;;;;;6200204;22;20507;-62
2022/08/30 01:08:46;;;;;;;2.60;2.40;;;24.10;39.30;;;;;;6192769;22;20399;-62
2022/08/30 01:11:19;;;;;;;2.00;1.90;;;24.10;39.40;;;;;;6202896;22;20463;-62
2022/08/30 01:13:46;;;;;;;2.60;2.40;;;24.10;39.40;;;;;;6190352;22;20544;-61
2022/08/30 01:16:12;;;;;;;2.70;2.50;;;24.10;39.40;;;;;;6192488;22;20422;-62
2022/08/30 01:18:38;;;;;;;2.10;2.00;;;24.10;39.40;;;;;;6201327;22;20482;-62
2022/08/30 01:21:06;;;;;;;2.73;2.53;;;24.10;39.40;;;;;;6202191;22;20926;-62
2022/08/30 01:23:34;;;;;;;2.60;2.40;;;24.10;39.50;;;;;;6202348;22;20198;-63
2022/08/30 01:26:02;;;;;;;2.47;2.37;;;24.10;39.40;;;;;;6197161;22;20934;-64
2022/08/30 01:28:29;;;;;;;2.37;2.20;;;24.10;39.50;;;;;;6200948;22;20507;-62
2022/08/30 01:30:55;;;;;;;3.47;3.17;;;24.10;39.50;;;;;;6204275;22;20436;-64
2022/08/30 01:33:21;;;;;;;2.40;2.30;;;24.10;39.50;;;;;;6176844;23;20798;-63
2022/08/30 01:36:06;;;;;;;2.50;2.40;;;24.10;39.50;;;;;;6201526;22;20297;-62
2022/08/30 01:38:47;;;;;;;3.90;2.80;;;24.10;39.50;;;;;;6196899;22;20415;-63
2022/08/30 01:41:16;;;;;;;3.00;2.80;;;24.10;39.50;;;;;;6203517;22;20426;-62
2022/08/30 01:43:43;;;;;;;2.87;2.67;;;24.10;39.50;;;;;;6201512;22;20466;-62
2022/08/30 01:46:10;;;;;;;3.37;3.07;;;24.10;39.60;;;;;;6203273;22;20430;-63
2022/08/30 01:48:37;;;;;;;2.23;2.13;;;24.10;39.60;;;;;;6205102;22;20482;-63
2022/08/30 01:51:04;;;;;;;2.70;2.50;;;24.10;39.60;;;;;;6207932;22;20432;-62
2022/08/30 01:53:30;;;;;;;2.73;2.53;;;24.10;39.60;;;;;;6204358;22;20426;-64
2022/08/30 01:55:56;;;;;;;2.30;2.20;;;24.10;39.60;;;;;;6206629;22;20921;-64
2022/08/30 01:58:22;;;;;;;3.47;2.53;;;24.10;39.60;;;;;;6200876;22;20420;-62
2022/08/30 02:00:49;;;;;;;2.40;2.30;;;24.10;39.60;;;;;;6193869;22;20194;-61
2022/08/30 02:03:14;;;;;;;3.00;2.80;;;24.10;39.60;;;;;;6190213;22;20411;-63
2022/08/30 02:05:40;;;;;;;2.50;2.30;;;24.10;39.60;;;;;;6203600;22;20895;-63
2022/08/30 02:08:06;;;;;;;2.60;2.40;;;24.10;39.70;;;;;;6202738;22;20532;-62
2022/08/30 02:10:32;;;;;;;2.80;2.70;;;24.10;39.70;;;;;;6205002;22;20205;-63
2022/08/30 02:12:58;;;;;;;2.60;2.40;;;24.10;39.70;;;;;;6205147;22;20194;-63
2022/08/30 02:15:24;;;;;;;2.30;2.10;;;24.10;39.70;;;;;;6205486;22;20269;-63
2022/08/30 02:17:50;;;;;;;2.70;2.60;;;24.10;39.80;;;;;;6201977;22;20451;-62
2022/08/30 02:20:16;;;;;;;2.60;2.40;;;24.10;39.70;;;;;;6201237;22;20430;-62
2022/08/30 02:22:41;;;;;;;2.70;2.60;;;24.10;39.70;;;;;;6177215;22;20213;-62
2022/08/30 02:25:07;;;;;;;2.70;2.50;;;24.10;39.70;;;;;;6195169;22;20229;-65
2022/08/30 02:27:33;;;;;;;3.00;2.80;;;24.10;39.80;;;;;;6179243;23;20621;-63
2022/08/30 02:29:59;;;;;;;2.90;2.70;;;24.10;39.80;;;;;;6202531;22;20694;-62
2022/08/30 02:32:24;;;;;;;3.00;2.80;;;24.10;39.80;;;;;;6188953;22;20202;-65
2022/08/30 02:34:50;;;;;;;2.60;2.50;;;24.10;39.80;;;;;;6197584;22;20198;-63
2022/08/30 02:37:16;;;;;;;3.10;2.90;;;24.10;39.80;;;;;;6204095;22;20269;-62
2022/08/30 02:39:41;;;;;;;2.80;2.63;;;24.10;39.80;;;;;;6195422;22;20195;-61
2022/08/30 02:42:07;;;;;;;2.90;2.80;;;24.10;39.80;;;;;;6184995;22;20202;-63
2022/08/30 02:44:33;;;;;;;2.80;2.60;;;24.10;39.80;;;;;;6171900;23;20264;-62
2022/08/30 02:46:58;;;;;;;2.77;2.57;;;24.00;39.70;;;;;;6188354;22;20205;-62
2022/08/30 02:49:24;;;;;;;3.07;2.87;;;24.10;39.80;;;;;;6183811;22;20630;-63
2022/08/30 02:51:49;;;;;;;2.70;2.60;;;24.10;39.80;;;;;;6196514;22;20304;-62
2022/08/30 02:54:18;;;;;;;3.00;2.80;;;24.10;39.90;;;;;;6199873;22;20218;-62
2022/08/30 02:56:48;;;;;;;2.53;2.40;;;24.10;39.90;;;;;;6202558;22;20695;-63
2022/08/30 02:59:16;;;;;;;2.70;2.60;;;24.10;39.90;;;;;;6199833;22;20427;-63
2022/08/30 03:01:41;;;;;;;3.20;3.00;;;24.00;39.80;;;;;;6199024;22;20419;-61
2022/08/30 03:04:08;;;;;;;3.23;2.93;;;24.00;39.80;;;;;;6201943;22;20717;-66
2022/08/30 03:06:34;;;;;;;2.90;2.70;;;24.00;39.80;;;;;;6201672;22;20506;-63
2022/08/30 03:09:00;;;;;;;2.83;2.73;;;24.10;39.90;;;;;;6199395;22;20416;-63
2022/08/30 03:11:26;;;;;;;2.83;2.73;;;24.10;39.90;;;;;;6206581;22;20458;-63
2022/08/30 03:13:51;;;;;;;2.77;2.60;;;24.10;39.90;;;;;;6205911;22;21212;-64
2022/08/30 03:16:17;;;;;;;2.97;2.77;;;24.10;40.00;;;;;;6200762;22;20701;-63
2022/08/30 03:18:43;;;;;;;2.90;2.80;;;24.00;39.90;;;;;;6201353;22;20220;-62
2022/08/30 03:21:13;;;;;;;3.07;2.87;;;24.10;40.00;;;;;;6200632;22;20252;-62
2022/08/30 03:23:40;;;;;;;3.10;2.90;;;24.10;40.10;;;;;;6200198;22;20194;-62
2022/08/30 03:26:12;;;;;;;2.93;2.73;;;24.00;39.90;;;;;;6201929;22;20507;-63
2022/08/30 03:28:38;;;;;;;3.10;2.97;;;24.00;39.90;;;;;;6203788;22;20412;-61
2022/08/30 03:31:04;;;;;;;3.53;3.33;;;24.00;39.90;;;;;;6202521;22;20427;-62
2022/08/30 03:33:30;;;;;;;3.00;2.80;;;24.00;40.00;;;;;;6203426;22;20416;-64
2022/08/30 03:35:56;;;;;;;2.67;2.57;;;24.00;39.90;;;;;;6205801;22;20503;-63
2022/08/30 03:38:21;;;;;;;3.13;2.93;;;24.10;40.90;;;;;;6205337;22;20193;-63
2022/08/30 03:40:47;;;;;;;2.80;2.60;;;24.00;40.00;;;;;;6203214;22;20940;-62
2022/08/30 03:43:12;;;;;;;3.03;2.90;;;24.00;40.00;;;;;;6198395;22;20218;-62
2022/08/30 03:45:38;;;;;;;3.50;3.30;;;24.00;40.00;;;;;;6203466;22;20189;-62
2022/08/30 03:48:04;;;;;;;2.90;2.70;;;24.00;40.00;;;;;;6201057;22;20209;-62
2022/08/30 03:50:30;;;;;;;2.93;2.73;;;24.00;40.00;;;;;;6201122;22;20675;-64
2022/08/30 03:52:56;;;;;;;3.40;3.20;;;24.00;40.00;;;;;;6201116;22;20204;-63
2022/08/30 03:55:22;;;;;;;3.30;3.10;;;24.00;40.00;;;;;;6206122;22;20703;-64
2022/08/30 03:57:48;;;;;;;2.97;2.77;;;24.00;40.00;;;;;;6198704;22;20411;-63
2022/08/30 04:00:16;;;;;;;2.80;2.70;;;24.10;40.20;;;;;;6199905;22;20543;-62
2022/08/30 04:02:41;;;;;;;3.20;3.00;;;24.00;40.10;;;;;;6200169;22;20201;-61
2022/08/30 04:05:09;;;;;;;3.33;3.13;;;24.00;40.10;;;;;;6202734;22;20415;-63
2022/08/30 04:07:35;;;;;;;3.10;2.90;;;24.00;40.10;;;;;;6204925;22;20189;-64
2022/08/30 04:10:01;;;;;;;3.23;3.03;;;24.00;40.10;;;;;;6203462;22;20499;-64
2022/08/30 04:12:27;;;;;;;3.60;3.40;;;24.10;40.20;;;;;;6171459;22;20783;-62
2022/08/30 04:14:53;;;;;;;2.70;2.50;;;24.00;40.10;;;;;;6204748;22;20415;-63
2022/08/30 04:17:19;;;;;;;2.80;2.60;;;24.00;40.10;;;;;;6198777;22;20220;-62
2022/08/30 04:19:45;;;;;;;3.10;2.90;;;24.00;40.10;;;;;;6204362;22;20448;-62
2022/08/30 04:22:11;;;;;;;3.17;2.97;;;24.00;40.10;;;;;;6199810;22;20202;-63
2022/08/30 04:24:37;;;;;;;3.83;3.60;;;24.00;40.10;;;;;;6202856;22;20408;-63
2022/08/30 04:27:03;;;;;;;3.23;3.03;;;24.00;40.10;;;;;;6201289;22;20240;-66
2022/08/30 04:29:29;;;;;;;3.40;3.20;;;24.00;40.10;;;;;;6198614;22;20198;-65
2022/08/30 04:31:56;;;;;;;3.27;2.97;;;24.00;40.10;;;;;;6202911;22;20443;-64
2022/08/30 04:34:21;;;;;;;2.93;2.83;;;24.10;40.20;;;;;;6196803;22;20422;-65
2022/08/30 04:36:48;;;;;;;3.00;2.80;;;24.10;40.10;;;;;;6191470;22;20741;-64
2022/08/30 04:39:14;;;;;;;2.80;2.60;;;24.10;40.10;;;;;;6203917;22;20292;-63
2022/08/30 04:41:40;;;;;;;2.80;2.60;;;24.10;39.90;;;;;;6194163;22;20435;-64
2022/08/30 04:44:06;;;;;;;3.10;2.90;;;24.20;40.10;;;;;;6199130;22;20447;-63
2022/08/30 04:46:34;;;;;;;3.03;2.83;;;24.20;39.90;;;;;;6196722;22;20244;-62
2022/08/30 04:49:00;;;;;;;3.00;2.90;;;24.20;39.90;;;;;;6143986;23;20871;-63
2022/08/30 04:51:26;;;;;;;2.80;2.60;;;24.20;39.90;;;;;;6189282;22;20796;-64
2022/08/30 04:53:52;;;;;;;3.10;2.90;;;24.20;39.90;;;;;;6191415;22;20552;-68
2022/08/30 04:56:23;;;;;;;2.97;2.77;;;24.20;39.90;;;;;;6187354;22;20186;-64
2022/08/30 04:58:51;;;;;;;2.80;2.60;;;24.20;39.90;;;;;;6194411;22;20265;-64
2022/08/30 05:01:21;;;;;;;2.67;2.47;;;24.20;39.80;;;;;;6191488;22;20415;-63
2022/08/30 05:03:48;;;;;;;3.00;2.80;;;24.20;39.80;;;;;;6201547;22;20411;-62
2022/08/30 05:06:14;;;;;;;2.93;2.73;;;24.20;39.70;;;;;;6192695;22;20960;-61
2022/08/30 05:08:40;;;;;;;3.17;2.90;;;24.20;39.70;;;;;;6165801;22;20989;-63
2022/08/30 05:11:08;;;;;;;2.83;2.63;;;24.20;39.70;;;;;;6170257;23;20749;-61
2022/08/30 05:13:35;;;;;;;2.67;2.47;;;24.20;39.70;;;;;;6190826;22;20516;-62
2022/08/30 05:16:02;;;;;;;2.97;2.77;;;24.20;39.60;;;;;;6198164;22;20412;-62
2022/08/30 05:18:28;;;;;;;2.80;2.60;;;24.20;39.60;;;;;;6205980;22;20968;-66
2022/08/30 05:21:19;;;;;;;2.50;2.40;;;24.20;39.50;;;;;;6200671;22;20424;-63
2022/08/30 05:23:45;;;;;;;3.30;3.00;;;24.20;39.50;;;;;;6196329;22;20278;-64
2022/08/30 05:26:13;;;;;;;12.83;3.00;;;24.20;39.50;;;;;;6199606;23;20419;-68
2022/08/30 05:28:38;;;;;;;4.43;3.03;;;24.20;39.50;;;;;;6197619;22;20921;-61
2022/08/30 05:31:14;;;;;;;7.07;2.77;;;24.20;39.40;;;;;;6206864;22;20423;-61
2022/08/30 05:33:40;;;;;;;3.10;2.80;;;24.20;39.40;;;;;;6174504;22;20247;-60
2022/08/30 05:36:07;;;;;;;2.53;2.33;;;24.20;39.40;;;;;;6171520;23;20412;-61
2022/08/30 05:38:33;;;;;;;3.10;2.43;;;24.20;39.40;;;;;;6197122;22;20411;-62
2022/08/30 05:40:59;;;;;;;3.60;3.40;;;24.20;39.40;;;;;;6197884;22;20485;-61
2022/08/30 05:43:25;;;;;;;2.70;2.50;;;24.20;39.30;;;;;;6204625;22;20790;-61
2022/08/30 05:46:18;;;;;;;2.60;2.50;;;24.20;39.30;;;;;;6202943;22;20201;-61
2022/08/30 05:48:44;;;;;;;3.17;2.97;;;24.20;39.30;;;;;;6196985;22;20270;-60
2022/08/30 05:51:18;;;;;;;2.60;2.40;;;24.20;39.30;;;;;;6201574;22;20432;-61
2022/08/30 05:53:45;;;;;;;2.37;2.27;;;24.20;39.20;;;;;;6201715;23;20494;-60
2022/08/30 05:56:13;;;;;;;2.20;2.10;;;24.20;39.20;;;;;;6202595;22;20416;-62
2022/08/30 05:58:40;;;;;;;3.03;2.80;;;24.20;39.20;;;;;;6197410;22;20428;-60
2022/08/30 06:01:06;;;;;;;2.60;2.27;;;24.20;39.10;;;;;;6177065;23;20419;-62
2022/08/30 06:03:32;;;;;;;2.67;2.47;;;24.10;39.00;;;;;;6174291;23;20444;-61
2022/08/30 06:06:02;;;;;;;3.20;3.00;;;24.20;39.10;;;;;;6172723;23;20459;-61
2022/08/30 06:08:28;;;;;;;2.53;2.40;;;24.20;39.00;;;;;;6173629;23;20412;-63
2022/08/30 06:10:53;;;;;;;2.70;2.50;;;24.20;39.00;;;;;;6202234;22;20937;-60
2022/08/30 06:13:19;;;;;;;3.53;2.30;;;24.20;39.00;;;;;;6202837;22;20508;-61
2022/08/30 06:15:45;;;;;;;2.30;2.20;;;24.20;39.00;;;;;;6203645;22;20224;-62
2022/08/30 06:18:12;;;;;;;3.13;2.93;;;24.20;39.00;;;;;;6204809;22;20728;-61
2022/08/30 06:20:40;;;;;;;2.20;2.10;;;24.20;39.00;;;;;;6200495;22;20514;-61
2022/08/30 06:23:07;;;;;;;3.13;2.70;;;24.20;38.90;;;;;;6200245;22;20478;-61
2022/08/30 06:25:35;;;;;;;2.63;2.43;;;24.20;38.90;;;;;;6168331;22;20443;-61
2022/08/30 06:28:03;;;;;;;2.50;2.40;;;24.20;38.90;;;;;;6199408;22;20419;-62
2022/08/30 06:30:29;;;;;;;2.80;2.60;;;24.20;38.80;;;;;;6199059;22;20422;-63
2022/08/30 06:32:55;;;;;;;2.73;2.53;;;24.20;38.80;;;;;;6204030;22;21129;-61
2022/08/30 06:35:21;;;;;;;2.50;2.30;;;24.20;38.80;;;;;;6199828;22;20422;-62
2022/08/30 06:37:47;;;;;;;2.83;2.13;;;24.20;38.80;;;;;;6175008;22;20416;-61
2022/08/30 06:40:13;;;;;;;4.63;2.33;;;24.20;38.80;;;;;;6202983;22;20269;-62
2022/08/30 06:42:39;;;;;;;4.00;2.80;;;24.20;38.80;;;;;;6195657;22;20272;-62
2022/08/30 06:45:05;;;;;;;2.60;2.50;;;24.20;38.80;;;;;;6200571;22;20737;-62
2022/08/30 06:47:31;;;;;;;2.63;2.33;;;24.20;38.80;;;;;;6204134;22;20419;-61
2022/08/30 06:49:57;;;;;;;3.30;3.00;;;24.20;38.80;;;;;;6204211;22;20416;-62
2022/08/30 06:52:23;;;;;;;2.80;2.60;;;24.20;38.80;;;;;;6205923;22;20474;-66
2022/08/30 06:54:49;;;;;;;2.57;2.47;;;24.20;38.80;;;;;;6201379;22;20428;-62
2022/08/30 06:57:15;;;;;;;2.67;2.57;;;24.20;38.80;;;;;;6194643;22;20538;-61
2022/08/30 06:59:41;;;;;;;2.93;2.73;;;24.20;38.80;;;;;;6198628;22;20198;-61
2022/08/30 07:02:07;;;;;;;2.50;2.40;;;24.20;38.80;;;;;;6199880;22;20416;-61
2022/08/30 07:04:33;;;;;;;2.60;2.50;;;24.20;38.80;;;;;;6200170;22;20589;-61
2022/08/30 07:06:59;;;;;;;2.67;2.57;;;24.20;38.80;;;;;;6200949;22;20198;-62
2022/08/30 07:09:25;;;;;;;2.20;2.10;;;24.20;38.80;;;;;;6203880;22;20404;-65
2022/08/30 07:11:52;;;;;;;2.50;2.30;;;24.20;38.80;;;;;;6199825;22;20427;-63
2022/08/30 07:14:19;;;;;;;2.60;2.40;;;24.20;38.80;;;;;;6198797;22;20186;-62
2022/08/30 07:16:46;;;;;;;3.33;2.80;;;24.20;38.80;;;;;;6179092;22;20498;-61
2022/08/30 07:19:12;;;;;;;2.80;2.60;;;24.20;38.90;;;;;;6197662;22;20431;-61
2022/08/30 07:21:43;;;;;;;2.87;2.67;;;24.20;38.90;;;;;;6199775;22;20424;-60
2022/08/30 07:24:11;;;;;;;2.37;2.27;;;24.20;38.90;;;;;;6196577;22;20225;-61
2022/08/30 07:26:48;;;;;;;2.50;2.40;;;24.20;38.90;;;;;;6201599;22;20917;-61
2022/08/30 07:29:16;;;;;;;2.90;2.70;;;24.20;39.00;;;;;;6170917;22;20470;-61
2022/08/30 07:31:42;;;;;;;2.67;2.57;;;24.20;39.00;;;;;;6189729;22;20487;-61
2022/08/30 07:34:08;;;;;;;2.70;2.60;;;24.20;39.00;;;;;;6200850;22;20419;-65
2022/08/30 07:36:37;;;;;;;2.50;2.40;;;24.20;39.00;;;;;;6202452;22;20621;-61
2022/08/30 07:39:05;;;;;;;3.00;2.80;;;24.20;39.00;;;;;;6197673;22;20412;-60
2022/08/30 07:41:35;;;;;;;2.97;2.87;;;24.20;39.00;;;;;;6200195;22;21171;-62
2022/08/30 07:44:01;;;;;;;3.37;3.07;;;24.20;39.00;;;;;;6197359;22;20416;-61
2022/08/30 07:46:27;;;;;;;2.93;2.73;;;24.20;39.00;;;;;;6202739;22;20514;-61
2022/08/30 07:48:54;;;;;;;2.93;2.63;;;24.20;39.00;;;;;;6204469;22;20419;-61
2022/08/30 07:51:22;;;;;;;2.70;2.53;;;24.20;39.00;;;;;;6197032;22;20432;-60
2022/08/30 07:53:48;;;;;;;3.70;2.80;;;24.20;39.00;;;;;;6193525;22;20430;-60
2022/08/30 07:56:14;;;;;;;2.87;2.67;;;24.20;39.10;;;;;;6199727;22;20415;-62
2022/08/30 07:58:40;;;;;;;2.93;2.73;;;24.20;39.10;;;;;;6193859;22;20447;-61
2022/08/30 08:01:09;;;;;;;2.70;2.60;;;24.20;39.10;;;;;;6193701;22;21029;-62
2022/08/30 08:03:38;;;;;;;2.83;2.63;;;24.20;39.10;;;;;;6189747;22;20189;-62
2022/08/30 08:06:06;;;;;;;4.03;2.53;;;24.20;39.10;;;;;;6200771;22;20450;-61
2022/08/30 08:08:33;;;;;;;3.10;2.90;;;24.20;39.20;;;;;;6196625;22;20416;-62
2022/08/30 08:11:06;;;;;;;2.60;2.40;;;24.20;39.20;;;;;;6182785;22;20430;-64
2022/08/30 08:13:32;;;;;;;2.60;2.50;;;24.20;39.20;;;;;;6197430;22;20415;-61
2022/08/30 08:15:58;;;;;;;2.83;2.63;;;24.20;39.20;;;;;;6205555;22;20411;-60
2022/08/30 08:18:24;;;;;;;3.27;2.97;;;24.20;39.20;;;;;;6199003;22;20427;-60
2022/08/30 08:20:50;;;;;;;2.83;2.70;;;24.20;39.30;;;;;;6195067;22;20198;-60
2022/08/30 08:23:16;;;;;;;3.00;2.80;;;24.20;39.30;;;;;;6196075;22;20451;-60
2022/08/30 08:25:44;;;;;;;3.00;2.80;;;24.20;39.30;;;;;;6196897;22;20772;-60
2022/08/30 08:28:10;;;;;;;2.97;2.87;;;24.20;39.30;;;;;;6199727;22;20450;-61
2022/08/30 08:30:37;;;;;;;3.27;3.13;;;24.20;39.40;;;;;;6193762;22;20202;-65
2022/08/30 08:33:05;;;;;;;2.90;2.80;;;24.20;39.40;;;;;;6195762;22;20655;-60
2022/08/30 08:35:31;;;;;;;3.33;3.03;;;24.20;39.40;;;;;;6195616;22;20411;-60
2022/08/30 08:37:58;;;;;;;3.00;2.90;;;24.20;39.50;;;;;;6197847;22;21001;-62
2022/08/30 08:40:25;;;;;;;4.13;3.60;;;24.20;39.50;;;;;;6200017;22;20415;-60
2022/08/30 08:43:09;;;;;;;3.20;3.00;;;24.20;39.60;;;;;;6200094;22;20419;-59
2022/08/30 08:46:04;;;;;;;3.43;3.23;;;24.20;39.60;;;;;;6202373;22;20470;-62
2022/08/30 08:48:38;;;;;;;3.27;3.07;;;24.20;39.60;;;;;;6148755;23;20848;-60
2022/08/30 08:54:10;;;;;;;3.27;3.07;;;24.20;39.70;;;;;;6194100;22;20466;-59
2022/08/30 08:56:36;;;;;;;3.23;3.10;;;24.20;39.60;;;;;;6194981;22;20454;-61
2022/08/30 08:59:05;;;;;;;3.50;3.30;;;24.20;39.60;;;;;;6200560;22;20800;-63
2022/08/30 09:01:32;;;;;;;3.63;3.33;;;24.20;39.70;;;;;;6202479;22;20427;-59
2022/08/30 09:04:04;;;;;;;4.07;3.67;;;24.20;40.50;;;;;;6203931;22;20791;-61
2022/08/30 09:06:57;;;;;;;3.20;3.00;;;24.20;39.70;;;;;;6172069;22;20487;-62
2022/08/30 09:09:30;;;;;;;3.80;3.60;;;24.20;39.70;;;;;;6197639;22;20474;-61
2022/08/30 09:11:56;;;;;;;3.90;3.60;;;24.20;39.70;;;;;;6198627;23;20441;-61
2022/08/30 09:14:25;;;;;;;4.10;3.80;;;24.20;39.80;;;;;;6202704;22;20415;-61
2022/08/30 09:16:58;;;;;;;3.40;3.20;;;24.20;39.70;;;;;;6203743;22;20851;-61
2022/08/30 09:19:44;;;;;;;3.70;3.40;;;24.20;39.70;;;;;;6204303;22;20777;-60
2022/08/30 09:22:20;;;;;;;3.60;3.30;;;24.30;39.80;;;;;;6192004;22;20922;-59
2022/08/30 09:25:16;;;;;;;4.33;4.03;;;24.30;39.80;;;;;;6204932;22;20410;-60
2022/08/30 09:27:45;;;;;;;4.10;3.90;;;24.30;39.90;;;;;;6168930;23;20415;-60
2022/08/30 09:30:26;;;;;;;3.40;3.20;;;24.30;39.90;;;;;;6196150;23;20939;-60
2022/08/30 09:32:52;;;;;;;4.27;3.97;;;24.30;39.90;;;;;;6203056;22;20897;-59
2022/08/30 09:35:36;;;;;;;4.43;4.03;;;24.30;39.90;;;;;;6205678;22;20429;-59
2022/08/30 09:38:08;;;;;;;4.17;3.87;;;24.30;39.90;;;;;;6204717;22;20334;-60
2022/08/30 09:40:38;;;;;;;8.67;3.07;;;24.30;39.90;;;;;;6204241;22;20474;-60
2022/08/30 09:43:23;;;;;;;3.77;3.57;;;24.30;39.90;;;;;;6191952;22;20756;-61
2022/08/30 09:46:09;;;;;;;4.67;3.40;;;24.30;39.90;;;;;;6204910;22;20411;-59
2022/08/30 09:48:42;;;;;;;3.30;3.20;;;24.30;39.90;;;;;;6203313;23;20451;-64
2022/08/30 09:51:13;;;;;;;3.87;3.50;;;24.30;39.90;;;;;;6176322;23;20525;-62
2022/08/30 09:54:16;;;;;;;4.10;3.83;;;24.30;39.90;;;;;;6201111;22;20438;-61
2022/08/30 09:57:10;;;;;;;3.60;3.40;;;24.30;39.90;;;;;;6198781;23;20427;-62
2022/08/30 09:59:47;;;;;;;3.53;3.40;;;24.30;40.00;;;;;;6205500;23;20510;-61
2022/08/30 10:02:53;;;;;;;3.60;3.40;;;24.30;40.10;;;;;;6202955;22;20481;-62
2022/08/30 10:05:32;;;;;;;3.37;3.17;;;24.30;40.00;;;;;;6199682;22;20407;-60
2022/08/30 10:08:22;;;;;;;4.10;3.90;;;24.30;40.10;;;;;;6205064;23;20494;-62
2022/08/30 10:10:56;;;;;;;4.20;4.00;;;24.30;40.10;;;;;;6205838;22;20439;-60
2022/08/30 10:14:07;;;;;;;3.87;3.67;;;24.20;40.10;;;;;;6207359;22;20427;-61
2022/08/30 10:16:53;;;;;;;4.10;3.80;;;24.20;40.10;;;;;;6181553;23;20768;-61
2022/08/30 10:19:37;;;;;;;3.60;3.40;;;24.20;40.20;;;;;;6177509;23;20800;-60
2022/08/30 10:22:20;;;;;;;3.67;3.47;;;24.20;40.10;;;;;;6175707;23;20431;-60
2022/08/30 10:24:52;;;;;;;3.87;3.67;;;24.20;40.10;;;;;;6174868;23;20417;-60
2022/08/30 10:27:25;;;;;;;4.10;3.90;;;24.20;40.20;;;;;;6172493;23;20416;-60
2022/08/30 10:30:01;;;;;;;3.40;3.20;;;24.30;40.20;;;;;;6180118;23;20494;-61
2022/08/30 10:32:34;;;;;;;4.43;3.97;;;24.30;40.20;;;;;;6192230;22;20934;-64
2022/08/30 10:35:13;;;;;;;4.30;4.10;;;24.30;40.20;;;;;;6190074;22;20428;-62
2022/08/30 10:37:46;;;;;;;4.17;3.97;;;24.30;40.20;;;;;;6205344;22;20895;-61
2022/08/30 10:43:23;;;;;;;4.27;4.03;;;24.30;40.20;;;;;;6205975;22;20955;-63
2022/08/30 10:45:52;;;;;;;4.33;4.03;;;24.30;40.20;;;;;;6204840;22;20435;-60
2022/08/30 10:48:29;;;;;;;3.50;3.30;;;24.30;40.20;;;;;;6202790;22;20425;-60
2022/08/30 10:51:01;;;;;;;3.50;3.30;;;24.30;40.20;;;;;;6193423;22;20801;-60
2022/08/30 10:54:11;;;;;;;3.50;3.30;;;24.30;40.30;;;;;;6194500;23;20428;-61
2022/08/30 10:56:41;;;;;;;3.57;3.37;;;24.30;40.20;;;;;;6155967;23;20788;-62
2022/08/30 10:59:07;;;;;;;3.40;3.20;;;24.30;40.20;;;;;;6198387;22;20439;-61
2022/08/30 11:05:33;;;;;;;4.00;3.67;;;24.30;40.20;;;;;;6207256;22;20567;-60
2022/08/30 11:10:55;;;;;;;3.33;3.13;;;24.30;40.20;;;;;;6149926;23;20511;-67
2022/08/30 11:16:05;;;;;;;3.97;3.77;;;24.30;40.10;;;;;;6208758;22;20433;-68
2022/08/30 11:18:40;;;;;;;4.77;3.23;;;24.30;40.20;;;;;;6208933;22;20892;-67
2022/08/30 11:21:37;;;;;;;5.27;3.87;;;24.30;40.10;;;;;;6236092;22;20418;-67
2022/08/30 11:24:10;;;;;;;5.80;3.80;;;24.30;40.10;;;;;;6203791;23;20415;-67
2022/08/30 11:26:45;;;;;;;3.73;3.53;;;24.30;40.10;;;;;;6204911;23;20402;-67
2022/08/30 11:29:31;;;;;;;3.20;3.00;;;24.40;40.30;;;;;;6207995;23;20415;-67
2022/08/30 11:32:12;;;;;;;3.40;3.20;;;24.40;40.20;;;;;;6201052;22;20430;-61
2022/08/30 11:34:46;;;;;;;5.00;4.13;;;24.40;40.20;;;;;;6181820;22;20842;-95
2022/08/30 11:37:38;;;;;;;3.63;3.37;;;24.40;40.30;;;;;;6235851;22;20414;-96
2022/08/30 11:40:08;;;;;;;7.23;3.67;;;24.40;40.30;;;;;;6209939;22;20680;-96
2022/08/30 11:42:53;;;;;;;4.60;3.97;;;24.40;40.30;;;;;;6208724;22;20498;-95
2022/08/30 11:45:22;;;;;;;6.20;3.67;;;24.40;40.40;;;;;;6232254;22;20407;-94
2022/08/30 11:48:04;;;;;;;4.73;3.63;;;24.40;40.30;;;;;;6205544;23;20418;-96
2022/08/30 11:51:04;;;;;;;7.30;4.13;;;24.40;40.30;;;;;;6174545;23;20430;-96
2022/08/30 11:53:46;;;;;;;5.10;3.73;;;24.40;40.30;;;;;;6174168;22;20411;-96
2022/08/30 11:56:20;;;;;;;6.33;4.07;;;24.30;40.20;;;;;;6185522;23;21186;-95
2022/08/30 11:58:52;;;;;;;5.67;3.50;;;24.30;40.30;;;;;;6235414;22;20505;-95
2022/08/30 12:01:37;;;;;;;4.13;3.73;;;24.30;40.30;;;;;;6237329;22;20426;-94
2022/08/30 12:04:08;;;;;;;4.43;4.03;;;24.40;40.50;;;;;;6201264;23;20482;-94
2022/08/30 12:06:39;;;;;;;5.30;3.83;;;24.30;40.50;;;;;;6207292;22;20476;-94
2022/08/30 12:09:09;;;;;;;4.73;4.33;;;24.30;40.50;;;;;;6208346;22;20870;-94
2022/08/30 12:11:35;;;;;;;4.07;3.87;;;24.30;40.50;;;;;;6210996;22;20884;-95
2022/08/30 12:14:04;;;;;;;4.30;4.00;;;24.30;40.50;;;;;;6210368;22;20465;-94
2022/08/30 12:19:31;;;;;;;4.13;3.80;;;24.40;40.60;;;;;;6230322;22;20449;-93
2022/08/30 12:22:00;;;;;;;5.53;3.83;;;24.40;40.60;;;;;;6202641;22;20426;-94
2022/08/30 12:24:35;;;;;;;4.40;4.10;;;24.40;40.50;;;;;;6209857;23;20454;-94
2022/08/30 12:27:19;;;;;;;4.67;4.33;;;24.40;40.50;;;;;;6193626;22;20425;-94
2022/08/30 12:30:05;;;;;;;4.63;3.50;;;24.40;40.50;;;;;;6218283;22;20415;-95
2022/08/30 12:32:31;;;;;;;5.23;3.97;;;24.40;40.50;;;;;;6208867;22;20590;-94
2022/08/30 12:34:59;;;;;;;3.90;3.60;;;24.40;40.50;;;;;;6201411;22;20439;-93
2022/08/30 12:37:27;;;;;;;4.10;3.80;;;24.40;40.50;;;;;;6229944;22;20439;-94
2022/08/30 12:40:09;;;;;;;4.33;3.93;;;24.40;40.60;;;;;;6184358;23;20448;-96
2022/08/30 12:42:37;;;;;;;3.70;3.50;;;24.40;40.50;;;;;;6205557;22;20420;-94
2022/08/30 12:45:11;;;;;;;3.97;3.60;;;24.40;40.50;;;;;;6183966;23;20741;-93
2022/08/30 12:47:48;;;;;;;5.07;4.23;;;24.40;40.50;;;;;;6188647;23;20431;-95
2022/08/30 12:50:22;;;;;;;4.37;3.97;;;24.40;40.60;;;;;;6200270;23;20419;-93
2022/08/30 12:53:01;;;;;;;4.90;3.50;;;24.40;40.60;;;;;;6203132;23;20445;-94
2022/08/30 12:55:30;;;;;;;3.70;3.50;;;24.40;40.60;;;;;;6196009;23;20709;-93
2022/08/30 12:58:08;;;;;;;4.20;3.90;;;24.40;40.60;;;;;;6205203;23;20514;-94
2022/08/30 13:00:37;;;;;;;4.00;3.80;;;24.40;40.60;;;;;;6198379;23;20430;-94
2022/08/30 13:03:25;;;;;;;4.50;4.20;;;24.40;40.60;;;;;;6199096;23;21219;-93
2022/08/30 13:05:51;;;;;;;6.07;3.73;;;24.40;40.60;;;;;;6191054;23;20407;-95
2022/08/30 13:08:26;;;;;;;4.23;3.73;;;24.40;40.60;;;;;;6204799;23;20529;-94
2022/08/30 13:10:54;;;;;;;4.37;4.07;;;24.40;40.60;;;;;;6196591;23;20189;-95
2022/08/30 13:13:47;;;;;;;3.67;3.37;;;24.30;40.50;;;;;;6196545;23;20411;-95
2022/08/30 13:16:22;;;;;;;3.93;3.70;;;24.30;40.50;;;;;;6189437;23;20412;-96
2022/08/30 13:18:54;;;;;;;4.00;3.80;;;24.30;40.50;;;;;;6178537;23;20416;-96
2022/08/30 13:21:29;;;;;;;4.00;3.80;;;24.30;40.50;;;;;;6197961;23;20425;-96
2022/08/30 13:24:00;;;;;;;4.10;3.80;;;24.30;40.50;;;;;;6206180;23;20470;-96